Tuesday, January 16, 2018, 12:24 PM EST
Back to Local

KFKL, Franklin, Venango Regional Airport

Location: Franklin, PA, United States Lat: 41.383
Local Time: 12:24 PM EST (17:24 GMT) Lon: -79.867
Time Zone: US/Eastern Elev: 1538 ft

Show me the last for .
Show Decoded

2018-01-16 12:09 METAR KFKL 161709Z AUTO 18008KT 2 1/2SM -SN BR BKN013 OVC020 M04/M06 A3030 RMK
                 AO2 VIS 1V4 P0000 FZRANO =
2018-01-16 12:00 METAR KFKL 161700Z AUTO 18009KT 1 1/4SM -SN SCT013 BKN017 OVC022 M03/M06 A3031
                 RMK AO2 VIS 1/4V5 P0000 FZRANO TSNO =
2018-01-16 11:56 METAR KFKL 161656Z AUTO 17010KT 2 1/2SM -SN BKN013 OVC020 M03/M06 A3031 RMK AO2
                 VIS 3/4V5 SLP288 P0000 T10331061 FZRANO =
2018-01-16 11:35 METAR KFKL 161635Z AUTO 18005KT 3SM -SN BKN011 BKN015 OVC027 M03/M06 A3032 RMK
                 AO2 P0000 FZRANO =
2018-01-16 11:15 METAR KFKL 161615Z AUTO 17005KT 2 1/2SM -SN FEW013 BKN021 OVC031 M04/M07 A3033
                 RMK AO2 VIS 1 1/4V4 P0000 FZRANO =
2018-01-16 10:56 METAR KFKL 161556Z AUTO 15005KT 6SM -SN SCT021 OVC030 M04/M07 A3033 RMK AO2
                 SLP294 P0000 T10441072 FZRANO =
2018-01-16 10:25 METAR KFKL 161525Z AUTO 16004KT 9SM -SN OVC028 M05/M07 A3033 RMK AO2 P0000
                 FZRANO =
2018-01-16 09:56 METAR KFKL 161456Z AUTO 00000KT 10SM -SN OVC030 M06/M07 A3033 RMK AO2 SNB56
                 SLP298 P0000 60000 T10611072 51008 FZRANO =
2018-01-16 09:45 METAR KFKL 161445Z AUTO 18004KT 10SM FEW025 OVC030 M06/M07 A3033 RMK AO2 FZRANO
                 =
2018-01-16 08:56 METAR KFKL 161356Z AUTO 00000KT 9SM OVC028 M07/M08 A3032 RMK AO2 SLP295
                 T10671078 FZRANO =
2018-01-16 08:41 METAR KFKL 161341Z AUTO 00000KT 9SM OVC028 M07/M08 A3032 RMK AO2 FZRANO =
2018-01-16 07:56 METAR KFKL 161256Z AUTO 00000KT 9SM CLR M07/M08 A3032 RMK AO2 SNE15 SLP294 P0000
                 T10721083 FZRANO =
2018-01-16 06:56 METAR KFKL 161156Z AUTO 00000KT 9SM -SN FEW033 OVC049 M06/M08 A3031 RMK AO2
                 SLP289 P0000 60006 70013 T10611078 11056 21061 51010 FZRANO =
2018-01-16 05:56 METAR KFKL 161056Z AUTO 23004KT 6SM -SN BR FEW008 OVC045 M06/M07 A3030 RMK AO2
                 SLP289 P0000 T10611072 FZRANO =
2018-01-16 05:37 METAR KFKL 161037Z AUTO 23003KT 5SM -SN BR FEW008 BKN034 OVC041 M06/M07 A3030
                 RMK AO2 P0000 FZRANO =
2018-01-16 05:25 METAR KFKL 161025Z AUTO 26005KT 4SM -SN BR SCT012 BKN024 OVC035 M06/M07 A3029
                 RMK AO2 P0000 FZRANO =
2018-01-16 05:11 METAR KFKL 161011Z AUTO 27006KT 3SM -SN BR OVC013 M06/M07 A3029 RMK AO2 P0000
                 FZRANO =
2018-01-16 04:56 METAR KFKL 160956Z AUTO 26006KT 3SM -SN BR BKN016 OVC022 M06/M07 A3030 RMK AO2
                 SLP286 P0001 T10561067 FZRANO =
2018-01-16 04:49 METAR KFKL 160949Z AUTO 27004KT 3SM -SN BR OVC019 M06/M07 A3029 RMK AO2 P0001
                 FZRANO =
2018-01-16 04:40 METAR KFKL 160940Z AUTO 27005KT 2 1/2SM -SN BR FEW011 OVC021 M06/M07 A3029 RMK
                 AO2 P0001 FZRANO =
2018-01-16 04:31 METAR KFKL 160931Z AUTO 29005KT 1 1/2SM -SN BR FEW011 OVC019 M06/M07 A3029 RMK
                 AO2 P0000 FZRANO =
2018-01-16 04:19 METAR KFKL 160919Z AUTO 28005KT 1 3/4SM -SN BR BKN013 OVC019 M06/M07 A3028 RMK
                 AO2 P0000 FZRANO =
2018-01-16 04:16 METAR KFKL 160916Z AUTO 27005KT 2SM -SN BR SCT013 OVC019 M06/M07 A3028 RMK AO2
                 P0000 FZRANO =
2018-01-16 03:56 METAR KFKL 160856Z AUTO 00000KT 1 3/4SM -SN BR SCT007 OVC017 M06/M07 A3028 RMK
                 AO2 SLP277 P0002 60005 T10561067 51009 FZRANO =
2018-01-16 03:33 METAR KFKL 160833Z AUTO 00000KT 1 3/4SM -SN BR BKN007 OVC012 M06/M07 A3028 RMK
                 AO2 P0001 FZRANO =
2018-01-16 03:15 METAR KFKL 160815Z AUTO 21003KT 1 3/4SM -SN BR OVC013 M06/M07 A3028 RMK AO2
                 P0001 FZRANO =
2018-01-16 02:56 METAR KFKL 160756Z AUTO 18005KT 3SM -SN BR OVC013 M06/M07 A3027 RMK AO2 SLP276
                 P0002 T10611072 FZRANO =
2018-01-16 02:43 METAR KFKL 160743Z AUTO 20005KT 2 1/2SM -SN BR OVC013 M06/M07 A3027 RMK AO2
                 P0002 FZRANO =
2018-01-16 02:31 METAR KFKL 160731Z AUTO 19004KT 2SM -SN BR FEW009 OVC016 M06/M07 A3027 RMK AO2
                 VIS 1 3/4V2 1/2 P0001 FZRANO =
2018-01-16 02:24 METAR KFKL 160724Z AUTO 19004KT 2SM -SN BR SCT012 OVC016 M06/M07 A3027 RMK AO2
                 P0001 FZRANO =
2018-01-16 01:56 METAR KFKL 160656Z AUTO 19005KT 3SM -SN BR OVC012 M06/M07 A3026 RMK AO2 SLP271
                 P0001 T10611072 FZRANO =
2018-01-16 01:46 METAR KFKL 160646Z AUTO 17005KT 4SM -SN BR OVC012 M06/M07 A3025 RMK AO2 P0001
                 FZRANO =
2018-01-16 01:10 METAR KFKL 160610Z AUTO 17006KT 2 1/2SM -SN BR OVC014 M06/M07 A3024 RMK AO2 VIS
                 1 1/2V4 P0000 FZRANO =
2018-01-16 00:56 METAR KFKL 160556Z AUTO 18005KT 3SM -SN BR FEW010 OVC014 M06/M07 A3025 RMK AO2
                 SLP269 P0001 60006 T10611072 11061 21067 56005 FZRANO =
2018-01-16 00:54 METAR KFKL 160554Z AUTO 16005KT 3SM -SN BR FEW008 OVC014 M06/M07 A3025 RMK AO2
                 P0001 FZRANO =
2018-01-16 00:46 METAR KFKL 160546Z AUTO 16005KT 3SM -SN BR SCT012 OVC017 M06/M07 A3025 RMK AO2
                 P0000 FZRANO =
2018-01-16 00:35 METAR KFKL 160535Z AUTO 17006KT 2 1/2SM -SN BR BKN012 OVC019 M06/M07 A3025 RMK
                 AO2 VIS 1 3/4V4 P0000 FZRANO =
2018-01-16 00:21 METAR KFKL 160521Z AUTO 17004KT 2 1/2SM -SN BR FEW007 BKN016 OVC023 M06/M07
                 A3025 RMK AO2 VIS 1 3/4V4 P0000 FZRANO =
2018-01-15 23:56 METAR KFKL 160456Z AUTO 16006KT 3SM -SN BR BKN018 OVC025 M06/M07 A3025 RMK AO2
                 SLP271 P0001 T10611072 410611150 FZRANO =
2018-01-15 23:42 METAR KFKL 160442Z AUTO 15007KT 2 1/2SM -SN BR OVC018 M06/M07 A3024 RMK AO2 VIS
                 1V3 P0000 FZRANO =
2018-01-15 23:30 METAR KFKL 160430Z AUTO 16008KT 3SM -SN BR FEW009 OVC016 M06/M07 A3025 RMK AO2
                 P0000 FZRANO =
2018-01-15 23:13 METAR KFKL 160413Z AUTO 14007KT 2 1/2SM -SN BR FEW008 BKN012 OVC018 M06/M07
                 A3025 RMK AO2 VIS 1 3/4V5 P0000 FZRANO =
2018-01-15 23:04 METAR KFKL 160404Z AUTO 14006KT 3SM -SN BR BKN012 BKN018 OVC023 M06/M07 A3025
                 RMK AO2 P0000 FZRANO =
2018-01-15 22:56 METAR KFKL 160356Z AUTO 15006KT 2 1/2SM -SN BR BKN012 OVC018 M06/M07 A3025 RMK
                 AO2 VIS 1 1/2V4 SLP273 P0001 T10611072 FZRANO =
2018-01-15 22:47 METAR KFKL 160347Z AUTO 14007KT 2SM -SN BR BKN012 OVC017 M06/M07 A3025 RMK AO2
                 VIS 1 1/2V3 P0001 FZRANO =
2018-01-15 22:38 METAR KFKL 160338Z AUTO 15006KT 2SM -SN BR SCT010 OVC015 M06/M07 A3025 RMK AO2
                 VIS 1 1/2V3 P0001 FZRANO =
2018-01-15 22:15 METAR KFKL 160315Z AUTO 14006KT 1 1/2SM -SN BR FEW008 BKN014 OVC022 M07/M08
                 A3026 RMK AO2 P0000 FZRANO =
2018-01-15 22:02 METAR KFKL 160302Z AUTO 13008KT 2 1/2SM -SN BR FEW008 BKN014 OVC024 M07/M08
                 A3026 RMK AO2 P0000 FZRANO =
2018-01-15 21:56 METAR KFKL 160256Z AUTO VRB06KT 3SM -SN BR FEW008 SCT014 OVC024 M07/M08 A3026
                 RMK AO2 SLP278 P0001 60003 T10671078 58001 FZRANO =
2018-01-15 21:40 METAR KFKL 160240Z AUTO 15006KT 3SM -SN BR FEW008 BKN014 OVC023 M07/M08 A3026
                 RMK AO2 P0001 FZRANO =
2018-01-15 21:17 METAR KFKL 160217Z AUTO 13008KT 2 1/2SM -SN BR OVC014 M07/M08 A3026 RMK AO2 VIS
                 2 1/2V3 P0001 FZRANO =
2018-01-15 21:05 METAR KFKL 160205Z AUTO 13007KT 1 3/4SM -SN BR BKN012 OVC016 M07/M08 A3027 RMK
                 AO2 P0000 FZRANO =
2018-01-15 20:56 METAR KFKL 160156Z AUTO 13008KT 2 1/2SM -SN BR OVC018 M07/M08 A3027 RMK AO2 VIS
                 2V3 SLP280 P0001 T10671078 FZRANO =
2018-01-15 20:31 METAR KFKL 160131Z AUTO 13006KT 2SM -SN BR BKN015 OVC019 M07/M08 A3027 RMK AO2
                 VIS 1 1/2V2 1/2 P0001 FZRANO =
2018-01-15 20:10 METAR KFKL 160110Z AUTO 15007KT 1 3/4SM -SN BR OVC011 M07/M08 A3027 RMK AO2
                 P0000 FZRANO =
2018-01-15 19:56 METAR KFKL 160056Z AUTO 15008KT 2 1/2SM -SN BR OVC011 M07/M08 A3027 RMK AO2 VIS
                 2V3 SLP282 P0001 T10671083 FZRANO =
2018-01-15 19:48 METAR KFKL 160048Z AUTO 14009KT 2SM -SN BR OVC011 M07/M08 A3027 RMK AO2 P0001
                 FZRANO =
2018-01-15 19:17 METAR KFKL 160017Z AUTO 14008KT 1 1/2SM -SN BR OVC011 M07/M08 A3028 RMK AO2
                 P0000 FZRANO =
2018-01-15 19:05 METAR KFKL 160005Z AUTO 17008KT 2 1/2SM -SN BR OVC013 M07/M08 A3027 RMK AO2 VIS
                 1 3/4V3 P0000 FZRANO =
2018-01-15 18:56 METAR KFKL 152356Z AUTO 14009KT 1 3/4SM -SN BR OVC011 M07/M08 A3027 RMK AO2 VIS
                 1 1/4V2 1/2 SLP281 P0001 60001 T10671083 11061 21072 55001 FZRANO =
2018-01-15 18:47 METAR KFKL 152347Z AUTO 16008KT 2SM -SN BR OVC011 M07/M08 A3026 RMK AO2 P0001
                 FZRANO =
2018-01-15 18:18 METAR KFKL 152318Z AUTO 13009KT 1 3/4SM -SN BR BKN009 OVC015 M07/M08 A3026 RMK
                 AO2 P0000 FZRANO =
2018-01-15 17:56 METAR KFKL 152256Z AUTO 13009KT 2SM -SN BR OVC011 M07/M08 A3027 RMK AO2 SLP281
                 P0000 T10721083 FZRANO =
2018-01-15 17:29 METAR KFKL 152229Z AUTO 13007KT 3/4SM -SN BR OVC013 M07/M08 A3027 RMK AO2 P0000
                 FZRANO =
2018-01-15 17:16 METAR KFKL 152216Z AUTO 13008KT 1 1/2SM -SN BR OVC013 M07/M08 A3027 RMK AO2 VIS
                 1V2 1/2 P0000 FZRANO =
2018-01-15 17:03 METAR KFKL 152203Z AUTO 14008KT 1SM -SN BR OVC013 M07/M09 A3027 RMK AO2 P0000
                 FZRANO =
2018-01-15 16:56 METAR KFKL 152156Z AUTO 15006KT 1 1/4SM -SN BR OVC015 M07/M09 A3027 RMK AO2
                 SLP282 P0000 T10721089 FZRANO =
2018-01-15 16:45 METAR KFKL 152145Z AUTO 14010KT 1 1/4SM -SN BR BKN013 OVC018 M07/M09 A3027 RMK
                 AO2 P0000 FZRANO =
2018-01-15 16:30 METAR KFKL 152130Z AUTO 14008KT 2 1/2SM -SN BR BKN016 OVC022 M07/M09 A3027 RMK
                 AO2 P0000 FZRANO =
2018-01-15 16:23 METAR KFKL 152123Z AUTO 14009KT 3SM -SN BKN016 OVC021 M07/M09 A3027 RMK AO2
                 P0000 FZRANO =
2018-01-15 16:06 METAR KFKL 152106Z AUTO 15007KT 2SM -SN SCT016 BKN021 OVC029 M07/M09 A3028 RMK
                 AO2 P0000 FZRANO =
2018-01-15 15:56 METAR KFKL 152056Z AUTO 14009KT 3SM -SN BKN021 OVC029 M06/M09 A3027 RMK AO2
                 SNB04 SLP282 P0000 60000 T10611094 55015 FZRANO =
2018-01-15 14:56 METAR KFKL 151956Z AUTO 15008KT 10SM OVC023 M06/M11 A3027 RMK AO2 SLP282
                 T10611111 FZRANO =
2018-01-15 13:56 METAR KFKL 151856Z AUTO 13011KT 10SM OVC023 M07/M12 A3027 RMK AO2 SNE43 SLP282
                 P0000 T10671117 FZRANO =
2018-01-15 13:04 METAR KFKL 151804Z AUTO 15011KT 9SM -SN FEW020 BKN028 OVC034 M07/M13 A3030 RMK
                 AO2 P0000 FZRANO =
2018-01-15 12:56 METAR KFKL 151756Z AUTO 17011KT 9SM -SN SCT024 OVC032 M07/M13 A3032 RMK AO2
                 SNB12 SLP298 P0000 60000 T10671128 11067 21144 58024 FZRANO =
2018-01-15 12:26 METAR KFKL 151726Z AUTO 15009KT 9SM -SN BKN027 OVC035 M08/M14 A3033 RMK AO2
                 SNB12 P0000 FZRANO =

Support USWX by starting your Amazon purchase here.